Time;durP1;ratioP1;P1;durP2;ratioP2;P2;SDS_P1;SDS_P2;PMS_P1;PMS_P2;Temp;Humidity;BMP_temperature;BMP_pressure;BME280_temperature;BME280_humidity;BME280_pressure;Samples;Min_cycle;Max_cycle;Signal;HPM_P1;HPM_P2
2022/07/23 00:01:19;;;;;;;9.65;6.80;;;;;;;28.81;40.68;98675.19;5095320;28;20028;-48
2022/07/23 00:03:45;;;;;;;14.18;8.10;;;;;;;28.76;40.61;98696.97;5095040;28;20024;-48
2022/07/23 00:06:10;;;;;;;8.70;7.05;;;;;;;28.93;40.52;98700.75;5076946;28;20028;-47
2022/07/23 00:08:36;;;;;;;14.93;7.00;;;;;;;28.81;40.60;98696.78;5094994;28;20367;-48
2022/07/23 00:11:02;;;;;;;11.45;6.53;;;;;;;28.51;41.64;98676.19;5094821;28;20506;-48
2022/07/23 00:13:28;;;;;;;11.52;6.32;;;;;;;28.22;42.28;98658.72;5094910;28;20096;-49
2022/07/23 00:15:53;;;;;;;10.00;6.55;;;;;;;28.08;42.97;98631.88;5094812;28;20027;-49
2022/07/23 00:18:19;;;;;;;8.88;6.20;;;;;;;28.03;42.92;98619.34;5094828;28;20141;-49
2022/07/23 00:20:45;;;;;;;8.55;6.22;;;;;;;27.62;43.84;98652.09;5076526;28;20031;-50
2022/07/23 00:23:11;;;;;;;21.55;13.60;;;;;;;27.23;44.29;98721.91;5094509;28;20510;-49
2022/07/23 00:25:36;;;;;;;11.30;6.82;;;;;;;27.33;45.09;98755.09;5076460;28;20052;-49
2022/07/23 00:28:03;;;;;;;11.18;6.95;;;;;;;28.06;43.65;98745.53;5094505;28;20497;-49
2022/07/23 00:30:32;;;;;;;126.00;24.10;;;;;;;28.55;49.91;98699.53;5094508;28;20499;-49
2022/07/23 00:33:03;;;;;;;25.40;9.55;;;;;;;26.87;52.14;98697.75;5076345;28;20081;-49
2022/07/23 00:35:32;;;;;;;39.55;12.55;;;;;;;25.09;59.20;98730.66;5076255;28;20049;-48
2022/07/23 00:37:59;;;;;;;32.17;12.20;;;;;;;24.29;65.42;98743.94;5094416;28;20062;-49
2022/07/23 00:40:28;;;;;;;16.77;10.07;;;;;;;23.77;66.48;98724.22;5094418;28;20028;-49
2022/07/23 00:42:54;;;;;;;16.10;9.07;;;;;;;23.50;68.31;98730.13;5094320;28;20023;-49
2022/07/23 00:45:19;;;;;;;19.42;10.35;;;;;;;23.35;68.28;98730.28;5094301;28;20549;-49
2022/07/23 00:47:45;;;;;;;17.92;10.02;;;;;;;;;;5075473;28;20067;-50
2022/07/23 00:50:11;;;;;;;23.15;11.10;;;;;;;23.15;71.00;98656.31;5093424;28;20024;-48
2022/07/23 00:52:38;;;;;;;33.60;12.10;;;;;;;23.61;72.41;98647.75;5094141;28;20028;-48
2022/07/23 00:55:06;;;;;;;19.00;10.20;;;;;;;24.02;74.39;98674.84;5094107;28;20012;-50
2022/07/23 00:57:32;;;;;;;24.00;11.23;;;;;;;24.00;70.86;98711.88;5094045;28;20020;-48
2022/07/23 00:59:58;;;;;;;18.80;10.35;;;;;;;23.53;71.46;98721.53;5075770;28;20032;-49
2022/07/23 01:02:27;;;;;;;18.27;12.32;;;;;;;23.27;72.47;98737.06;5093937;28;20142;-49
2022/07/23 01:04:53;;;;;;;22.23;12.65;;;;;;;23.26;73.30;98751.50;5093873;28;20012;-49
2022/07/23 01:07:20;;;;;;;16.17;11.13;;;;;;;23.40;74.70;98752.47;5093845;28;20028;-50
2022/07/23 01:09:46;;;;;;;16.60;10.50;;;;;;;23.44;73.56;98756.19;5075538;28;20016;-49
2022/07/23 01:12:12;;;;;;;24.88;12.75;;;;;;;23.46;73.20;98774.63;5093731;28;20057;-49
2022/07/23 01:14:38;;;;;;;26.38;11.77;;;;;;;23.56;73.18;98761.13;5093649;28;20028;-49
2022/07/23 01:17:04;;;;;;;29.83;12.85;;;;;;;23.97;73.00;98768.75;5093680;28;20437;-50
2022/07/23 01:19:30;;;;;;;16.40;12.15;;;;;;;23.97;72.22;98774.13;5093651;28;20020;-49
2022/07/23 01:21:57;;;;;;;18.88;12.23;;;;;;;23.77;72.53;98793.91;5075104;28;20031;-49
2022/07/23 01:24:23;;;;;;;18.67;12.05;;;;;;;23.52;73.42;98787.72;5093594;28;20062;-48
2022/07/23 01:26:49;;;;;;;13.65;11.80;;;;;;;23.40;73.82;98781.94;5075243;28;20090;-49
2022/07/23 01:29:15;;;;;;;14.93;11.45;;;;;;;23.34;73.64;98783.03;5093430;28;20401;-49
2022/07/23 01:31:41;;;;;;;23.98;12.48;;;;;;;23.30;73.88;98782.81;5075074;28;20409;-49
2022/07/23 01:34:07;;;;;;;19.23;13.40;;;;;;;23.26;74.83;98784.47;5075327;28;20024;-49
2022/07/23 01:36:34;;;;;;;23.35;14.27;;;;;;;23.25;74.91;98777.50;5093225;28;20038;-50
2022/07/23 01:39:00;;;;;;;16.30;11.48;;;;;;;23.28;75.15;98779.63;5075033;28;20031;-50
2022/07/23 01:41:25;;;;;;;18.40;12.57;;;;;;;23.32;74.50;98775.31;5093175;28;20028;-49
2022/07/23 01:43:51;;;;;;;17.42;11.55;;;;;;;23.43;74.37;98777.88;5074916;28;20520;-49
2022/07/23 01:46:17;;;;;;;16.45;12.43;;;;;;;23.52;74.15;98773.50;5074838;28;20467;-49
2022/07/23 01:48:42;;;;;;;15.77;11.70;;;;;;;23.55;73.56;98777.50;5093019;28;20027;-49
2022/07/23 01:51:08;;;;;;;18.23;10.73;;;;;;;23.60;73.20;98783.59;5092870;28;20047;-49
2022/07/23 01:53:34;;;;;;;12.15;10.80;;;;;;;23.74;73.23;98791.75;5092947;28;20032;-49
2022/07/23 01:56:01;;;;;;;15.32;10.57;;;;;;;23.97;73.08;98784.84;5092933;28;20098;-50
2022/07/23 01:58:28;;;;;;;14.30;10.93;;;;;;;24.33;72.73;98768.31;5092836;28;20020;-49
2022/07/23 02:00:54;;;;;;;18.25;11.77;;;;;;;24.48;71.94;98751.19;5074167;28;20028;-50
2022/07/23 02:03:20;;;;;;;13.98;11.90;;;;;;;24.41;70.84;98762.31;5074572;28;20047;-49
2022/07/23 02:05:45;;;;;;;20.35;18.15;;;;;;;24.28;71.50;98785.25;5092677;28;20512;-49
2022/07/23 02:08:11;;;;;;;33.42;13.18;;;;;;;24.41;72.57;98789.13;5092690;28;20012;-49
2022/07/23 02:10:37;;;;;;;21.70;12.35;;;;;;;25.17;72.93;98801.72;5074380;28;20023;-49
2022/07/23 02:13:02;;;;;;;22.55;12.40;;;;;;;25.54;71.93;98800.84;5074337;28;20024;-49
2022/07/23 02:15:28;;;;;;;17.88;12.02;;;;;;;25.50;71.32;98797.16;5092520;28;20102;-49
2022/07/23 02:17:55;;;;;;;12.43;11.25;;;;;;;25.34;71.37;98785.88;5092550;28;20099;-49
2022/07/23 02:20:21;;;;;;;18.50;15.90;;;;;;;25.00;71.00;98804.97;5092695;28;20028;-49
2022/07/23 02:22:47;;;;;;;16.65;13.90;;;;;;;24.60;71.97;98825.94;5092146;28;20068;-49
2022/07/23 02:25:13;;;;;;;16.30;12.15;;;;;;;24.44;73.31;98825.31;5074147;28;20063;-50
2022/07/23 02:27:38;;;;;;;14.85;10.98;;;;;;;24.71;72.83;98820.13;5074141;28;20450;-50
2022/07/23 02:30:05;;;;;;;14.75;9.52;;;;;;;24.90;71.19;98800.53;5074000;28;20496;-50
2022/07/23 02:32:31;;;;;;;14.13;10.80;;;;;;;25.00;70.57;98778.91;5092332;28;20547;-49
2022/07/23 02:34:56;;;;;;;31.48;11.40;;;;;;;25.09;72.17;98787.06;5074327;28;20020;-49
2022/07/23 02:37:22;;;;;;;21.67;15.00;;;;;;;25.34;72.77;98810.06;5073976;28;20059;-49
2022/07/23 02:39:50;;;;;;;17.40;13.88;;;;;;;24.91;73.26;98827.09;5092200;28;20020;-50
2022/07/23 02:42:17;;;;;;;24.20;16.50;;;;;;;24.41;75.64;98839.28;5092189;28;20020;-50
2022/07/23 02:44:43;;;;;;;17.73;13.95;;;;;;;24.21;77.37;98838.47;5092091;28;20024;-49
2022/07/23 02:47:08;;;;;;;19.63;13.45;;;;;;;23.88;77.37;98819.50;5073932;28;20031;-49
2022/07/23 02:49:34;;;;;;;26.77;11.90;;;;;;;23.81;78.54;98832.47;5073889;28;20520;-49
2022/07/23 02:52:00;;;;;;;14.93;12.20;;;;;;;23.88;77.40;98851.66;5073828;28;20482;-50
2022/07/23 02:54:25;;;;;;;14.18;10.70;;;;;;;23.78;76.91;98848.31;5091959;28;20020;-49
2022/07/23 02:56:51;;;;;;;11.00;9.35;;;;;;;23.68;76.12;98839.25;5073866;28;20111;-49
2022/07/23 02:59:17;;;;;;;12.15;9.10;;;;;;;23.59;75.08;98829.44;5091968;28;20497;-48
2022/07/23 03:01:43;;;;;;;10.38;8.65;;;;;;;23.60;74.34;98834.50;5091892;28;20032;-48
2022/07/23 03:04:09;;;;;;;14.05;9.15;;;;;;;23.75;73.52;98830.88;5073846;28;20020;-47
2022/07/23 03:06:35;;;;;;;16.83;8.57;;;;;;;23.96;72.10;98839.53;5091822;28;20036;-48
2022/07/23 03:09:01;;;;;;;8.55;7.32;;;;;;;24.02;70.85;98833.03;5073701;28;20024;-48
2022/07/23 03:11:27;;;;;;;9.82;7.05;;;;;;;24.02;69.20;98824.97;5092073;28;20028;-48
2022/07/23 03:13:52;;;;;;;13.75;7.15;;;;;;;24.04;69.22;98808.63;5077803;28;20540;-49
2022/07/23 03:16:18;;;;;;;16.20;7.13;;;;;;;24.16;68.49;98808.22;5095964;28;20147;-48
2022/07/23 03:18:43;;;;;;;9.43;7.47;;;;;;;24.32;68.37;98796.22;5096223;28;20103;-48
2022/07/23 03:21:09;;;;;;;8.52;6.93;;;;;;;24.39;68.66;98803.88;5095852;28;20067;-48
2022/07/23 03:23:35;;;;;;;13.60;7.65;;;;;;;24.47;68.54;98797.91;5061927;28;20530;-48
2022/07/23 03:26:01;;;;;;;13.15;9.07;;;;;;;24.71;70.52;98824.72;5075550;28;20020;-47
2022/07/23 03:28:26;;;;;;;15.25;8.82;;;;;;;24.77;71.51;98852.25;5075495;28;20498;-48
2022/07/23 03:30:55;;;;;;;22.13;17.02;;;;;;;24.71;70.93;98825.50;5075365;28;20490;-49
2022/07/23 03:33:21;;;;;;;11.98;8.82;;;;;;;24.49;70.92;98819.88;5075432;28;20028;-49
2022/07/23 03:35:48;;;;;;;14.15;8.07;;;;;;;24.60;68.86;98786.47;5057391;28;20051;-48
2022/07/23 03:38:14;;;;;;;17.25;7.75;;;;;;;24.65;68.00;98793.63;5075361;28;20476;-48
2022/07/23 03:40:40;;;;;;;15.88;8.35;;;;;;;24.95;66.92;98815.75;5075239;28;20490;-49
2022/07/23 03:43:06;;;;;;;21.38;9.48;;;;;;;24.96;66.95;98823.53;5057224;28;20033;-48
2022/07/23 03:45:32;;;;;;;13.88;8.07;;;;;;;25.10;65.63;98820.91;5075152;28;20525;-48
2022/07/23 03:47:58;;;;;;;14.20;7.20;;;;;;;25.27;64.54;98831.94;5057265;28;20031;-48
2022/07/23 03:50:24;;;;;;;10.48;7.15;;;;;;;25.40;64.26;98834.97;5074958;28;20509;-48
2022/07/23 03:52:50;;;;;;;20.80;7.43;;;;;;;25.46;63.31;98829.22;5075038;28;20029;-48
2022/07/23 03:55:16;;;;;;;15.38;7.82;;;;;;;24.96;61.92;98846.91;5057035;28;20035;-48
2022/07/23 03:57:42;;;;;;;13.45;7.22;;;;;;;24.71;64.09;98857.72;5074908;28;20024;-47
2022/07/23 04:00:09;;;;;;;16.90;6.80;;;;;;;24.96;63.47;98871.06;5074859;28;20533;-48
2022/07/23 04:02:36;;;;;;;13.45;6.93;;;;;;;25.24;62.77;98880.88;5074823;28;20590;-47
2022/07/23 04:05:03;;;;;;;16.52;8.07;;;;;;;25.43;62.28;98877.34;5074800;28;20024;-48
2022/07/23 04:07:28;;;;;;;14.02;6.72;;;;;;;25.43;61.79;98888.09;5074779;28;20029;-47
2022/07/23 04:09:54;;;;;;;10.63;7.00;;;;;;;25.42;61.32;98890.00;5074629;28;20024;-47
2022/07/23 04:12:20;;;;;;;12.50;6.40;;;;;;;25.46;60.80;98896.38;5074571;28;20021;-47
2022/07/23 04:14:46;;;;;;;10.30;6.82;;;;;;;25.46;59.70;98900.97;5075214;28;20093;-48
2022/07/23 04:17:12;;;;;;;14.82;7.30;;;;;;;25.36;59.05;98909.19;5056541;28;20047;-48
2022/07/23 04:19:43;;;;;;;13.80;7.28;;;;;;;25.28;58.41;98916.81;5056543;28;20516;-48
2022/07/23 04:22:10;;;;;;;9.10;6.50;;;;;;;25.26;57.94;98910.13;5074106;28;20051;-48
2022/07/23 04:24:36;;;;;;;14.65;7.28;;;;;;;25.30;57.53;98911.94;5056376;28;20033;-48
2022/07/23 04:27:02;;;;;;;15.40;6.80;;;;;;;25.49;57.44;98919.19;5056377;28;20025;-47
2022/07/23 04:29:28;;;;;;;11.07;7.03;;;;;;;25.62;56.90;98920.34;5056361;28;20119;-48
2022/07/23 04:31:54;;;;;;;11.13;6.57;;;;;;;25.70;56.11;98919.66;5074272;28;20143;-46
2022/07/23 04:34:19;;;;;;;13.73;6.28;;;;;;;25.79;55.61;98922.47;5056344;28;20082;-48
2022/07/23 04:36:45;;;;;;;15.50;7.05;;;;;;;25.83;55.27;98934.22;5074154;28;20504;-47
2022/07/23 04:39:14;;;;;;;9.52;6.88;;;;;;;25.93;54.93;98933.28;5074223;28;20025;-47
2022/07/23 04:41:40;;;;;;;9.40;6.28;;;;;;;26.00;55.31;98929.13;5074136;28;20020;-46
2022/07/23 04:44:05;;;;;;;17.10;6.45;;;;;;;26.06;55.31;98930.63;5074133;28;20553;-48
2022/07/23 04:46:31;;;;;;;8.82;6.80;;;;;;;26.06;54.76;98937.91;5039496;28;20501;-47
2022/07/23 04:48:57;;;;;;;12.73;6.20;;;;;;;26.09;55.19;98932.72;5074032;28;20059;-47
2022/07/23 04:51:23;;;;;;;8.70;6.43;;;;;;;26.16;55.00;98928.81;5055805;28;20027;-47
2022/07/23 04:53:49;;;;;;;10.85;6.63;;;;;;;26.40;54.33;98918.69;5055917;28;20047;-48
2022/07/23 04:56:15;;;;;;;11.27;6.50;;;;;;;26.94;52.96;98915.47;5073813;28;20031;-47
2022/07/23 04:58:41;;;;;;;13.48;7.00;;;;;;;27.56;51.29;98904.88;5055870;28;20140;-48
2022/07/23 05:01:06;;;;;;;11.02;6.63;;;;;;;28.01;50.03;98893.25;5055782;28;20493;-49
2022/07/23 05:03:32;;;;;;;12.75;5.93;;;;;;;28.35;49.06;98884.50;5055758;28;20032;-49
2022/07/23 05:05:58;;;;;;;16.40;7.22;;;;;;;28.53;48.91;98887.28;5073715;28;20505;-48
2022/07/23 05:08:23;;;;;;;9.15;6.90;;;;;;;28.88;49.14;98885.44;5055639;28;20501;-49
2022/07/23 05:10:49;;;;;;;7.40;6.68;;;;;;;28.65;48.74;98882.06;5073523;28;20547;-50
2022/07/23 05:13:16;;;;;;;12.77;7.22;;;;;;;28.32;48.21;98885.13;5073475;28;20029;-49
2022/07/23 05:15:42;;;;;;;9.07;7.10;;;;;;;28.33;47.40;98884.00;5055515;28;20023;-49
2022/07/23 05:18:08;;;;;;;18.98;8.15;;;;;;;28.62;47.84;98877.31;5055565;28;20024;-49
2022/07/23 05:20:34;;;;;;;15.38;7.03;;;;;;;29.08;46.54;98874.00;5073368;28;20024;-49
2022/07/23 05:23:00;;;;;;;8.45;7.38;;;;;;;29.46;44.78;98873.34;5073039;28;20550;-49
2022/07/23 05:25:25;;;;;;;8.15;7.35;;;;;;;29.62;43.59;98880.94;5073256;28;20516;-49
2022/07/23 05:27:51;;;;;;;9.57;7.15;;;;;;;29.77;43.04;98885.88;5073219;28;20522;-48
2022/07/23 05:30:17;;;;;;;8.23;6.85;;;;;;;29.90;42.44;98889.47;5073124;28;20029;-49
2022/07/23 05:32:45;;;;;;;9.15;7.47;;;;;;;30.10;42.63;98896.09;5073378;28;20074;-47
2022/07/23 05:35:11;;;;;;;7.75;6.95;;;;;;;30.52;42.07;98901.66;5072678;28;20031;-47
2022/07/23 05:37:37;;;;;;;15.35;6.90;;;;;;;31.14;40.95;98902.84;5055015;28;20026;-47
2022/07/23 05:40:07;;;;;;;9.00;7.15;;;;;;;31.57;39.15;98907.13;5072994;28;20130;-48
2022/07/23 05:42:37;;;;;;;17.80;7.35;;;;;;;32.07;38.30;98905.28;5073243;28;20047;-49
2022/07/23 05:45:03;;;;;;;12.85;6.65;;;;;;;32.51;37.79;98905.53;5054982;28;20036;-49
2022/07/23 05:47:38;;;;;;;8.50;6.85;;;;;;;32.88;36.89;98908.22;5054968;28;20518;-49
2022/07/23 05:50:04;;;;;;;16.02;7.07;;;;;;;33.03;36.49;98903.97;5054750;28;20453;-49
2022/07/23 05:52:30;;;;;;;15.48;7.50;;;;;;;33.43;36.00;98909.41;5072787;28;20025;-50
2022/07/23 05:54:56;;;;;;;14.20;8.25;;;;;;;33.69;35.36;98910.88;5072727;28;20505;-50
2022/07/23 05:57:21;;;;;;;12.63;6.35;;;;;;;33.91;35.18;98914.94;5072570;28;20096;-50
2022/07/23 05:59:47;;;;;;;7.45;6.30;;;;;;;34.18;34.20;98915.22;5054613;28;20032;-49
2022/07/23 06:02:13;;;;;;;9.55;6.82;;;;;;;34.17;33.31;98903.56;5054524;28;20040;-49
2022/07/23 06:04:38;;;;;;;13.18;6.70;;;;;;;34.21;33.91;98917.28;5072503;28;20482;-49
2022/07/23 06:07:07;;;;;;;10.07;6.43;;;;;;;34.58;34.12;98916.94;5072486;28;20456;-50
2022/07/23 06:09:32;;;;;;;10.32;6.70;;;;;;;34.96;33.51;98913.50;5054386;28;20498;-50
2022/07/23 06:11:58;;;;;;;9.18;6.80;;;;;;;35.37;32.57;98908.47;5054316;28;20111;-49
2022/07/23 06:14:23;;;;;;;9.48;6.80;;;;;;;35.28;32.33;98907.94;5054321;28;20021;-49
2022/07/23 06:16:49;;;;;;;9.35;6.65;;;;;;;35.15;32.02;98898.28;5072334;28;20044;-49
2022/07/23 06:19:15;;;;;;;10.77;7.30;;;;;;;34.98;33.20;98902.25;5072223;28;20024;-50
2022/07/23 06:21:41;;;;;;;12.02;6.85;;;;;;;35.32;32.63;98905.28;5072256;28;20070;-49
2022/07/23 06:24:06;;;;;;;11.25;6.30;;;;;;;35.45;32.05;98894.97;5072049;28;20044;-50
2022/07/23 06:26:32;;;;;;;8.73;6.75;;;;;;;35.43;31.72;98903.53;5054141;28;20119;-50
2022/07/23 06:28:58;;;;;;;7.15;6.45;;;;;;;35.58;31.08;98901.88;5054157;28;20047;-50
2022/07/23 06:31:23;;;;;;;9.20;6.30;;;;;;;36.07;30.91;98901.16;5071977;28;20489;-49
2022/07/23 06:33:49;;;;;;;11.75;5.90;;;;;;;36.64;29.88;98892.28;5072052;28;20020;-50
2022/07/23 06:36:15;;;;;;;10.80;6.18;;;;;;;36.65;29.61;98889.16;5071966;28;20531;-50
2022/07/23 06:38:41;;;;;;;15.38;7.03;;;;;;;36.58;29.83;98899.97;5072002;28;20070;-50
2022/07/23 06:41:06;;;;;;;10.40;6.28;;;;;;;36.51;29.73;98897.94;5071906;28;20024;-48
2022/07/23 06:43:32;;;;;;;11.15;6.65;;;;;;;36.19;30.62;98895.50;5054099;28;20033;-48
2022/07/23 06:45:58;;;;;;;15.45;6.40;;;;;;;36.40;30.53;98894.25;5053764;28;20089;-50
2022/07/23 06:48:23;;;;;;;15.10;6.60;;;;;;;36.91;29.88;98879.34;5071877;28;20032;-49
2022/07/23 06:50:49;;;;;;;8.25;6.00;;;;;;;37.42;29.07;98886.97;5053787;28;20485;-50
2022/07/23 06:53:14;;;;;;;9.88;5.95;;;;;;;37.48;28.48;98888.19;5071769;28;20390;-50
2022/07/23 06:55:40;;;;;;;7.18;5.55;;;;;;;37.77;28.10;98888.47;5072073;28;20028;-49
2022/07/23 06:58:06;;;;;;;7.00;5.57;;;;;;;37.93;27.74;98888.22;5071777;28;20025;-47
2022/07/23 07:00:32;;;;;;;11.82;5.75;;;;;;;38.40;26.41;98886.63;5071900;28;20032;-48
2022/07/23 07:02:58;;;;;;;9.48;5.80;;;;;;;38.97;26.06;98894.41;5071716;28;20485;-48
2022/07/23 07:05:27;;;;;;;6.28;5.68;;;;;;;38.87;25.96;98895.13;5053650;28;20085;-50
2022/07/23 07:07:55;;;;;;;6.35;5.13;;;;;;;38.88;25.87;98897.50;5071584;28;20115;-48
2022/07/23 07:10:21;;;;;;;6.43;5.13;;;;;;;39.18;25.10;98906.63;5071528;28;20025;-50
2022/07/23 07:12:47;;;;;;;16.45;5.93;;;;;;;39.38;25.10;98909.81;5071663;28;20024;-49
2022/07/23 07:15:13;;;;;;;12.25;5.25;;;;;;;39.61;25.04;98899.31;5071580;28;20405;-48
2022/07/23 07:17:39;;;;;;;9.23;5.40;;;;;;;39.38;24.90;98907.84;5071560;28;20508;-48
2022/07/23 07:20:05;;;;;;;6.72;5.18;;;;;;;39.24;25.75;98900.41;5053520;28;20024;-49
2022/07/23 07:22:31;;;;;;;10.40;5.80;;;;;;;39.68;24.96;98896.56;5071293;28;20410;-47
2022/07/23 07:24:57;;;;;;;5.30;4.80;;;;;;;39.79;24.91;98918.56;5071540;28;20032;-48
2022/07/23 07:27:23;;;;;;;10.00;4.97;;;;;;;39.71;24.88;98914.25;5071401;28;20028;-50
2022/07/23 07:29:48;;;;;;;11.52;5.85;;;;;;;39.62;24.54;98908.31;5071391;28;20098;-49
2022/07/23 07:32:14;;;;;;;6.07;4.85;;;;;;;39.14;25.66;98915.66;5053317;28;20029;-49
2022/07/23 07:34:40;;;;;;;12.02;7.00;;;;;;;38.30;26.40;98914.78;5053458;28;20122;-50
2022/07/23 07:37:06;;;;;;;9.65;5.70;;;;;;;38.16;26.43;98924.47;5071368;28;20078;-50
2022/07/23 07:39:31;;;;;;;8.05;5.45;;;;;;;38.09;26.45;98918.94;5053407;28;20029;-50
2022/07/23 07:41:57;;;;;;;14.23;6.50;;;;;;;37.84;27.64;98910.47;5071332;28;20024;-50
2022/07/23 07:44:22;;;;;;;6.40;5.40;;;;;;;37.39;27.97;98909.63;5071307;28;20060;-49
2022/07/23 07:46:48;;;;;;;9.63;5.50;;;;;;;37.34;27.88;98916.22;5053261;28;20024;-49
2022/07/23 07:49:14;;;;;;;8.55;5.68;;;;;;;37.74;27.58;98914.69;5053259;28;20078;-49
2022/07/23 07:51:39;;;;;;;9.73;5.45;;;;;;;37.89;27.36;98925.78;5071247;28;20025;-49
2022/07/23 07:54:05;;;;;;;15.27;7.18;;;;;;;37.85;27.33;98928.50;5053312;28;20489;-48
2022/07/23 07:56:31;;;;;;;8.65;5.72;;;;;;;37.91;27.98;98923.44;5053211;28;20398;-49
2022/07/23 07:58:56;;;;;;;8.18;5.53;;;;;;;38.36;27.51;98927.75;5055858;28;20035;-48
2022/07/23 08:01:22;;;;;;;9.85;5.80;;;;;;;39.33;25.96;98930.22;5056853;28;20567;-49
2022/07/23 08:03:50;;;;;;;10.30;5.50;;;;;;;40.30;24.72;98922.09;5074888;28;20427;-49
2022/07/23 08:06:16;;;;;;;11.30;5.72;;;;;;;40.70;23.88;98920.84;5074791;28;20393;-48
2022/07/23 08:08:42;;;;;;;12.68;5.88;;;;;;;40.56;24.36;98931.91;5074802;28;20025;-50
2022/07/23 08:11:07;;;;;;;8.75;5.45;;;;;;;40.46;24.51;98921.72;5074616;28;20562;-50
2022/07/23 08:13:33;;;;;;;8.38;4.88;;;;;;;40.52;24.06;98922.88;5074758;28;20486;-48
2022/07/23 08:15:59;;;;;;;8.15;5.68;;;;;;;40.84;23.83;98922.03;5074645;28;20394;-50
2022/07/23 08:18:24;;;;;;;10.57;5.60;;;;;;;41.13;23.45;98919.91;5074640;28;20032;-49
2022/07/23 08:20:50;;;;;;;6.90;5.30;;;;;;;41.55;22.82;98923.63;5056583;28;20498;-48
2022/07/23 08:23:19;;;;;;;7.93;5.75;;;;;;;42.13;21.87;98924.03;5043588;28;20059;-51
2022/07/23 08:25:46;;;;;;;8.25;6.40;;;;;;;40.93;23.51;98919.59;5036479;28;20032;-50
2022/07/23 08:28:13;;;;;;;6.38;5.68;;;;;;;39.71;24.95;98920.50;5054422;28;20105;-48
2022/07/23 08:30:40;;;;;;;10.30;5.93;;;;;;;39.75;24.97;98926.00;5054282;28;20017;-50
2022/07/23 08:33:12;;;;;;;8.27;5.32;;;;;;;39.98;24.90;98927.63;5036384;28;20025;-50
2022/07/23 08:35:50;;;;;;;8.30;5.20;;;;;;;39.98;24.86;98917.41;5054323;28;20522;-50
2022/07/23 08:38:18;;;;;;;7.78;5.07;;;;;;;40.95;23.70;98921.97;5054254;28;20449;-50
2022/07/23 08:40:49;;;;;;;12.80;5.88;;;;;;;41.52;22.92;98921.69;5054133;28;20024;-48
2022/07/23 08:43:19;;;;;;;9.77;5.15;;;;;;;41.00;23.28;98918.81;5054152;28;20087;-48
2022/07/23 08:45:50;;;;;;;8.98;5.18;;;;;;;41.99;22.65;98910.34;5019754;28;20117;-48
2022/07/23 08:48:18;;;;;;;7.57;5.57;;;;;;;43.15;20.59;98914.25;5036176;28;20113;-49
2022/07/23 08:50:47;;;;;;;9.45;5.15;;;;;;;42.72;21.09;98916.75;5035967;28;20020;-48
2022/07/23 08:53:14;;;;;;;9.98;5.10;;;;;;;42.36;21.42;98917.91;5053908;28;20048;-51
2022/07/23 08:55:40;;;;;;;9.43;6.35;;;;;;;42.54;21.51;98914.97;5053888;28;20098;-49
2022/07/23 08:58:06;;;;;;;8.82;5.13;;;;;;;42.89;21.09;98919.31;5053860;28;20028;-47
2022/07/23 09:00:33;;;;;;;14.80;5.05;;;;;;;42.74;21.05;98914.34;5053867;28;20490;-50
2022/07/23 09:03:02;;;;;;;8.88;5.03;;;;;;;43.20;20.91;98907.47;5053744;28;20032;-50
2022/07/23 09:05:28;;;;;;;8.75;4.72;;;;;;;43.22;20.54;98914.16;5053736;28;20029;-50
2022/07/23 09:08:07;;;;;;;5.13;4.60;;;;;;;42.92;20.80;98922.44;5019371;28;20029;-47
2022/07/23 09:10:56;;;;;;;8.57;4.40;;;;;;;43.63;20.15;98924.25;5052401;28;20113;-47
2022/07/23 09:13:28;;;;;;;6.40;4.53;;;;;;;44.68;18.61;98917.75;5035735;28;20409;-48
2022/07/23 09:15:56;;;;;;;5.68;4.38;;;;;;;45.38;17.95;98913.91;5053408;28;20032;-50
2022/07/23 09:18:50;;;;;;;5.50;4.47;;;;;;;46.18;17.61;98913.56;5035493;28;20029;-48
2022/07/23 09:21:24;;;;;;;8.82;4.78;;;;;;;46.40;17.38;98910.97;5049832;28;20087;-49
2022/07/23 09:24:03;;;;;;;9.00;4.72;;;;;;;46.03;17.57;98912.41;5070500;28;20048;-49
2022/07/23 09:26:31;;;;;;;10.23;4.47;;;;;;;45.73;17.55;98919.06;5073570;28;20055;-49
2022/07/23 09:29:16;;;;;;;6.60;4.20;;;;;;;44.79;18.38;98921.06;5055296;28;20490;-49
2022/07/23 09:31:53;;;;;;;8.57;4.40;;;;;;;43.89;19.34;98916.38;5073098;28;20017;-49
2022/07/23 09:34:26;;;;;;;11.77;4.90;;;;;;;44.24;19.54;98916.97;5073459;28;20115;-49
2022/07/23 09:37:08;;;;;;;10.25;4.95;;;;;;;44.78;19.08;98925.06;5072933;28;20053;-49
2022/07/23 09:39:34;;;;;;;8.40;4.55;;;;;;;44.95;18.45;98925.13;5073099;28;20398;-50
2022/07/23 09:42:14;;;;;;;8.70;4.53;;;;;;;43.91;19.88;98915.94;5054984;28;20037;-49
2022/07/23 09:44:45;;;;;;;8.25;4.90;;;;;;;42.85;20.25;98924.09;5072951;28;20099;-50
2022/07/23 09:47:10;;;;;;;5.90;4.38;;;;;;;41.71;21.39;98923.94;5072788;28;20119;-50
2022/07/23 09:49:36;;;;;;;5.43;4.03;;;;;;;41.36;21.69;98924.16;5072855;28;20092;-48
2022/07/23 09:52:03;;;;;;;9.30;4.43;;;;;;;41.60;21.26;98919.72;5072609;28;20024;-48
2022/07/23 09:54:33;;;;;;;7.35;4.80;;;;;;;41.75;21.44;98920.38;5072967;28;20021;-49
2022/07/23 09:57:16;;;;;;;10.25;4.95;;;;;;;42.01;21.50;98919.00;5072642;28;20378;-49
2022/07/23 09:59:47;;;;;;;7.33;4.53;;;;;;;42.77;20.83;98921.81;5072768;28;20032;-49
2022/07/23 10:02:15;;;;;;;10.07;4.40;;;;;;;43.17;20.40;98924.91;5054635;28;20910;-48
2022/07/23 10:04:41;;;;;;;11.75;4.65;;;;;;;43.00;20.46;98927.47;5072573;28;20029;-50
2022/07/23 10:07:10;;;;;;;8.68;4.60;;;;;;;42.57;20.26;98924.41;5072481;28;20016;-51
2022/07/23 10:09:38;;;;;;;8.35;4.15;;;;;;;42.30;19.99;98934.13;5054812;28;20082;-49
2022/07/23 10:12:16;;;;;;;8.95;4.50;;;;;;;42.42;20.05;98937.53;5054351;28;20075;-48
2022/07/23 10:14:42;;;;;;;6.25;4.50;;;;;;;42.80;19.53;98930.03;5072365;28;20032;-48
2022/07/23 10:17:09;;;;;;;7.90;4.20;;;;;;;42.97;19.31;98931.06;5072295;28;20031;-47
2022/07/23 10:19:35;;;;;;;9.00;4.32;;;;;;;42.31;20.03;98932.91;5072314;28;20583;-48
2022/07/23 10:22:08;;;;;;;7.75;4.38;;;;;;;41.43;21.02;98930.41;5071657;28;20020;-49
2022/07/23 10:25:17;;;;;;;11.77;4.85;;;;;;;40.89;21.71;98929.84;5054340;28;20041;-49
2022/07/23 10:27:58;;;;;;;11.13;4.53;;;;;;;40.20;22.33;98931.16;5072216;28;20083;-48
2022/07/23 10:30:44;;;;;;;12.05;5.43;;;;;;;39.50;23.21;98931.47;5072111;28;20086;-51
2022/07/23 10:33:25;;;;;;;7.50;4.40;;;;;;;39.32;23.19;98934.13;5054389;28;20032;-48
2022/07/23 10:36:01;;;;;;;8.70;4.72;;;;;;;39.93;23.21;98935.09;5072107;28;20016;-47
2022/07/23 10:38:37;;;;;;;11.98;4.88;;;;;;;40.65;22.21;98937.78;5072007;28;20067;-49
2022/07/23 10:41:04;;;;;;;16.98;5.00;;;;;;;41.08;21.79;98925.84;5072023;28;20030;-48
2022/07/23 10:43:31;;;;;;;11.50;5.13;;;;;;;41.79;21.28;98927.44;5071923;28;20501;-48
2022/07/23 10:46:44;;;;;;;20.20;5.40;;;;;;;42.70;20.46;98926.25;5071895;28;20428;-49
2022/07/23 10:49:32;;;;;;;8.52;4.78;;;;;;;43.40;19.36;98918.69;5071976;28;20032;-50
2022/07/23 10:52:13;;;;;;;11.57;4.68;;;;;;;43.15;19.54;98916.25;5053764;28;20032;-49
2022/07/23 10:55:02;;;;;;;9.88;4.85;;;;;;;43.83;19.48;98929.88;5053744;28;20069;-50
2022/07/23 10:57:28;;;;;;;11.48;4.97;;;;;;;44.01;18.82;98924.06;5034049;28;20032;-47
2022/07/23 11:00:10;;;;;;;8.10;4.72;;;;;;;43.83;19.07;98940.94;5053652;28;20055;-49
2022/07/23 11:02:36;;;;;;;6.35;4.70;;;;;;;43.73;19.05;98938.34;5071721;28;20033;-48
2022/07/23 11:05:06;;;;;;;7.28;4.30;;;;;;;43.55;19.65;98933.84;5053813;28;20505;-50
2022/07/23 11:07:33;;;;;;;9.63;4.85;;;;;;;43.65;19.28;98935.66;5071719;28;20032;-48
2022/07/23 11:09:59;;;;;;;9.20;4.20;;;;;;;44.48;18.43;98931.56;5053671;28;20086;-48
2022/07/23 11:12:27;;;;;;;7.70;4.60;;;;;;;44.79;17.95;98929.38;5053460;28;20532;-51
2022/07/23 11:15:11;;;;;;;8.80;3.85;;;;;;;45.33;17.58;98927.50;5071598;28;20078;-49
2022/07/23 11:17:56;;;;;;;7.47;4.05;;;;;;;45.23;17.38;98934.81;5071670;28;20033;-47
2022/07/23 11:20:24;;;;;;;5.20;4.30;;;;;;;44.61;17.98;98938.03;5053209;28;20032;-48
2022/07/23 11:22:56;;;;;;;5.75;4.05;;;;;;;43.68;18.62;98925.78;5071328;28;20036;-48
2022/07/23 11:25:21;;;;;;;7.07;4.40;;;;;;;42.80;19.70;98934.78;5071551;28;20029;-48
2022/07/23 11:27:49;;;;;;;11.13;4.80;;;;;;;42.16;20.84;98928.75;5071514;28;20149;-48
2022/07/23 11:30:26;;;;;;;8.13;4.35;;;;;;;41.93;20.33;98932.06;5071373;28;20017;-50